Time;durP1;ratioP1;P1;durP2;ratioP2;P2;SDS_P1;SDS_P2;PMS_P1;PMS_P2;Temp;Humidity;BMP_temperature;BMP_pressure;BME280_temperature;BME280_humidity;BME280_pressure;Samples;Min_cycle;Max_cycle;Signal;HPM_P1;HPM_P2
2023/10/25 00:01:08;;;;;;;;;;;;;;;22.49;49.84;100130.00;7395072;19;1387;-37
2023/10/25 00:03:36;;;;;;;;;;;;;;;22.42;49.92;100124.44;7395435;19;1404;-36
2023/10/25 00:06:05;;;;;;;;;;;;;;;22.43;50.00;100128.84;7395550;19;1526;-36
2023/10/25 00:08:33;;;;;;;;;;;;;;;22.45;49.73;100116.03;7394241;19;1565;-37
2023/10/25 00:11:05;;;;;;;;;;;;;;;22.44;49.66;100119.72;7395157;19;1501;-36
2023/10/25 00:13:36;;;;;;;;;;;;;;;22.45;49.84;100110.66;7392273;19;1526;-36
2023/10/25 00:16:05;;;;;;;;;;;;;;;22.41;49.85;100106.63;7394360;19;1804;-36
2023/10/25 00:18:33;;;;;;;;;;;;;;;22.45;49.90;100102.56;7391668;19;1848;-36
2023/10/25 00:21:03;;;;;;;;;;;;;;;22.42;49.81;100098.38;7393012;19;1812;-36
2023/10/25 00:23:31;;;;;;;;;;;;;;;22.42;49.78;100079.50;7393427;19;1585;-36
2023/10/25 00:26:00;;;;;;;;;;;;;;;22.41;49.67;100082.38;7393260;19;1895;-36
2023/10/25 00:28:28;;;;;;;;;;;;;;;22.45;49.51;100089.09;7393513;19;1580;-36
2023/10/25 00:30:59;;;;;;;;;;;;;;;22.43;49.76;100093.81;7393249;19;1811;-36
2023/10/25 00:33:28;;;;;;;;;;;;;;;22.41;49.59;100095.84;7394438;19;1526;-36
2023/10/25 00:35:56;;;;;;;;;;;;;;;22.38;49.77;100091.66;7393512;19;1843;-36
2023/10/25 00:38:25;;;;;;;;;;;;;;;22.40;49.58;100096.84;7392003;19;1890;-36
2023/10/25 00:40:53;;;;;;;;;;;;;;;22.41;49.55;100082.38;7392825;19;1494;-36
2023/10/25 00:43:23;;;;;;;;;;;;;;;22.36;49.48;100073.97;7389239;19;1483;-36
2023/10/25 00:46:06;;;;;;;;;;;;;;;22.34;49.73;100068.78;7393074;19;1542;-37
2023/10/25 00:48:38;;;;;;;;;;;;;;;22.37;49.83;100083.75;7392292;19;1677;-37
2023/10/25 00:51:06;;;;;;;;;;;;;;;22.36;49.55;100066.75;7389680;19;1360;-37
2023/10/25 00:53:35;;;;;;;;;;;;;;;22.33;49.77;100066.25;7392461;19;1547;-36
2023/10/25 00:56:04;;;;;;;;;;;;;;;22.36;49.74;100082.91;7393159;19;1582;-36
2023/10/25 00:58:33;;;;;;;;;;;;;;;22.33;49.61;100063.56;7391059;19;1841;-36
2023/10/25 01:01:02;;;;;;;;;;;;;;;22.34;49.60;100060.69;7391272;19;1415;-36
2023/10/25 01:03:31;;;;;;;;;;;;;;;22.35;49.67;100072.28;7392933;19;1392;-36
2023/10/25 01:06:03;;;;;;;;;;;;;;;22.31;49.61;100065.59;7394067;19;1836;-37
2023/10/25 01:08:32;;;;;;;;;;;;;;;22.31;49.75;100068.28;7393586;19;1731;-36
2023/10/25 01:11:00;;;;;;;;;;;;;;;22.31;49.78;100066.41;7391929;19;1809;-37
2023/10/25 01:13:29;;;;;;;;;;;;;;;22.30;49.68;100070.09;7389789;19;1855;-36
2023/10/25 01:15:57;;;;;;;;;;;;;;;22.32;49.59;100053.78;7390761;19;1614;-36
2023/10/25 01:18:25;;;;;;;;;;;;;;;22.32;49.60;100054.66;7389666;19;1836;-36
2023/10/25 01:20:54;;;;;;;;;;;;;;;22.32;49.77;100057.34;7390170;19;1742;-36
2023/10/25 01:23:25;;;;;;;;;;;;;;;22.37;49.76;100056.81;7392326;19;1535;-37
2023/10/25 01:25:53;;;;;;;;;;;;;;;22.38;49.42;100066.53;7391376;19;1359;-36
2023/10/25 01:28:21;;;;;;;;;;;;;;;22.33;49.61;100067.09;7392298;19;1401;-36
2023/10/25 01:30:50;;;;;;;;;;;;;;;22.34;49.78;100067.91;7389926;19;1603;-37
2023/10/25 01:33:18;;;;;;;;;;;;;;;22.34;49.78;100076.00;7393680;19;1538;-37
2023/10/25 01:35:46;;;;;;;;;;;;;;;22.33;49.86;100053.59;7392688;19;1836;-37
2023/10/25 01:38:15;;;;;;;;;;;;;;;22.35;49.55;100061.53;7391112;19;1849;-37
2023/10/25 01:40:46;;;;;;;;;;;;;;;22.35;49.85;100064.22;7392212;19;1750;-36
2023/10/25 01:43:14;;;;;;;;;;;;;;;22.33;49.91;100075.16;7391485;19;1822;-37
2023/10/25 01:45:42;;;;;;;;;;;;;;;22.35;49.48;100061.53;7391132;19;1435;-36
2023/10/25 01:48:11;;;;;;;;;;;;;;;22.33;49.81;100055.47;7392211;19;1329;-36
2023/10/25 01:50:39;;;;;;;;;;;;;;;22.30;49.91;100045.88;7390229;19;1740;-36
2023/10/25 01:53:07;;;;;;;;;;;;;;;22.33;49.83;100036.63;7391214;19;1934;-36
2023/10/25 01:55:35;;;;;;;;;;;;;;;22.30;49.71;100042.34;7393194;19;1904;-36
2023/10/25 01:58:06;;;;;;;;;;;;;;;22.34;49.54;100051.75;7397332;19;1867;-37
2023/10/25 02:00:35;;;;;;;;;;;;;;;22.32;49.81;100035.78;7398807;19;1840;-37
2023/10/25 02:03:03;;;;;;;;;;;;;;;22.29;49.83;100046.91;7398777;19;1523;-36
2023/10/25 02:05:31;;;;;;;;;;;;;;;22.31;49.73;100044.88;7398614;19;1588;-36
2023/10/25 02:08:00;;;;;;;;;;;;;;;22.29;49.87;100036.13;7398899;19;1553;-36
2023/10/25 02:10:28;;;;;;;;;;;;;;;22.30;49.75;100051.25;7399182;19;1827;-36
2023/10/25 02:12:56;;;;;;;;;;;;;;;22.31;49.72;100030.56;7396435;19;1542;-37
2023/10/25 02:15:27;;;;;;;;;;;;;;;22.28;49.58;100038.97;7398203;19;1656;-36
2023/10/25 02:17:55;;;;;;;;;;;;;;;22.29;50.02;100052.28;7396728;19;1845;-36
2023/10/25 02:20:24;;;;;;;;;;;;;;;22.28;49.84;100044.38;7399029;19;1752;-36
2023/10/25 02:22:52;;;;;;;;;;;;;;;22.29;49.74;100052.28;7398364;19;1548;-36
2023/10/25 02:25:21;;;;;;;;;;;;;;;22.30;49.67;100042.34;7399604;19;1564;-36
2023/10/25 02:27:49;;;;;;;;;;;;;;;22.28;49.76;100049.75;7397187;19;2054;-36
2023/10/25 02:30:17;;;;;;;;;;;;;;;22.28;49.56;100034.44;7397177;19;1832;-36
2023/10/25 02:32:48;;;;;;;;;;;;;;;22.27;49.70;100024.69;7396255;19;1820;-36
2023/10/25 02:35:18;;;;;;;;;;;;;;;22.26;49.67;100024.84;7397000;19;1576;-36
2023/10/25 02:37:46;;;;;;;;;;;;;;;22.24;49.84;100028.56;7396345;19;1840;-36
2023/10/25 02:40:14;;;;;;;;;;;;;;;22.23;49.62;100005.31;7398218;19;1530;-36
2023/10/25 02:42:46;;;;;;;;;;;;;;;22.24;49.64;100016.94;7396935;19;1683;-36
2023/10/25 02:45:15;;;;;;;;;;;;;;;22.22;49.81;100019.81;7396671;19;1395;-36
2023/10/25 02:47:43;;;;;;;;;;;;;;;22.27;49.66;100032.75;7397863;19;1544;-36
2023/10/25 02:50:15;;;;;;;;;;;;;;;22.25;49.57;100026.72;7397596;19;1641;-37
2023/10/25 02:52:46;;;;;;;;;;;;;;;22.26;49.57;100027.53;7396806;19;1373;-36
2023/10/25 02:55:15;;;;;;;;;;;;;;;22.21;49.78;100045.03;7396733;19;1475;-41
2023/10/25 02:57:43;;;;;;;;;;;;;;;22.27;49.41;100043.53;7396465;19;1878;-36
2023/10/25 03:00:12;;;;;;;;;;;;;;;22.24;49.50;100044.75;7398126;19;1123;-36
2023/10/25 03:02:41;;;;;;;;;;;;;;;22.20;49.68;100032.59;7397869;19;984;-36
2023/10/25 03:05:10;;;;;;;;;;;;;;;22.23;49.80;100048.41;7395330;19;1421;-36
2023/10/25 03:07:41;;;;;;;;;;;;;;;22.21;49.80;100047.72;7396289;19;1827;-36
2023/10/25 03:10:10;;;;;;;;;;;;;;;22.21;49.55;100044.22;7395695;19;1838;-36
2023/10/25 03:12:38;;;;;;;;;;;;;;;22.22;49.70;100035.97;7396095;19;1732;-36
2023/10/25 03:15:07;;;;;;;;;;;;;;;22.22;49.66;100030.56;7395121;19;1607;-36
2023/10/25 03:17:35;;;;;;;;;;;;;;;22.17;49.67;100029.41;7395683;19;1802;-37
2023/10/25 03:20:05;;;;;;;;;;;;;;;22.18;49.67;100021.16;7397493;19;1342;-37
2023/10/25 03:22:34;;;;;;;;;;;;;;;22.22;49.87;100022.50;7395136;19;1397;-37
2023/10/25 03:25:05;;;;;;;;;;;;;;;22.19;49.92;100000.44;7395684;19;1843;-37
2023/10/25 03:27:33;;;;;;;;;;;;;;;22.18;49.83;99991.53;7395293;19;1836;-36
2023/10/25 03:30:02;;;;;;;;;;;;;;;22.20;49.99;99984.13;7395715;19;1694;-37
2023/10/25 03:32:30;;;;;;;;;;;;;;;22.14;50.15;99976.72;7396015;19;1796;-36
2023/10/25 03:34:59;;;;;;;;;;;;;;;22.17;49.84;99989.84;7396069;19;1755;-37
2023/10/25 03:37:27;;;;;;;;;;;;;;;22.19;49.72;100014.75;7396515;19;1849;-36
2023/10/25 03:39:55;;;;;;;;;;;;;;;22.22;49.63;100003.66;7394764;19;1770;-37
2023/10/25 03:42:26;;;;;;;;;;;;;;;22.20;49.62;100016.44;7394566;19;1413;-36
2023/10/25 03:44:55;;;;;;;;;;;;;;;22.17;49.80;100016.78;7394906;19;1416;-36
2023/10/25 03:47:23;;;;;;;;;;;;;;;22.17;49.74;100006.00;7394855;19;1380;-36
2023/10/25 03:49:54;;;;;;;;;;;;;;;22.16;50.00;100001.66;7394286;19;1576;-36
2023/10/25 03:52:23;;;;;;;;;;;;;;;22.12;50.00;99994.91;7392922;19;1392;-36
2023/10/25 03:54:51;;;;;;;;;;;;;;;22.21;49.55;99979.56;7394128;19;1346;-36
2023/10/25 03:57:19;;;;;;;;;;;;;;;22.11;49.74;99963.63;7394415;19;1408;-36
2023/10/25 03:59:50;;;;;;;;;;;;;;;22.02;49.73;99970.06;7395164;19;1563;-36
2023/10/25 04:02:19;;;;;;;;;;;;;;;22.02;49.78;99970.06;7393672;19;1408;-36
2023/10/25 04:04:47;;;;;;;;;;;;;;;22.04;49.97;99957.25;7393346;19;1980;-36
2023/10/25 04:07:15;;;;;;;;;;;;;;;22.00;49.95;99966.69;7395002;19;1379;-37
2023/10/25 04:09:44;;;;;;;;;;;;;;;22.01;49.97;99980.00;7394633;19;1664;-36
2023/10/25 04:12:14;;;;;;;;;;;;;;;21.99;49.66;99979.31;7395427;19;1558;-36
2023/10/25 04:14:46;;;;;;;;;;;;;;;21.98;49.79;99977.63;7394513;19;1166;-36
2023/10/25 04:17:17;;;;;;;;;;;;;;;22.02;49.51;99997.84;7393091;19;1703;-36
2023/10/25 04:19:45;;;;;;;;;;;;;;;22.00;49.84;100009.78;7392670;19;1845;-37
2023/10/25 04:22:14;;;;;;;;;;;;;;;22.02;49.51;100007.75;7393899;19;1620;-36
2023/10/25 04:24:42;;;;;;;;;;;;;;;22.00;49.48;99996.31;7394414;19;1536;-36
2023/10/25 04:27:11;;;;;;;;;;;;;;;21.96;49.67;99989.59;7393441;19;1858;-37
2023/10/25 04:29:39;;;;;;;;;;;;;;;21.99;49.43;99992.78;7394668;19;1522;-36
2023/10/25 04:32:08;;;;;;;;;;;;;;;21.97;49.62;99989.44;7393598;19;1605;-36
2023/10/25 04:34:39;;;;;;;;;;;;;;;21.95;49.63;99996.00;7393572;19;1696;-36
2023/10/25 04:37:07;;;;;;;;;;;;;;;21.93;49.46;99990.78;7393846;19;1507;-36
2023/10/25 04:39:36;;;;;;;;;;;;;;;21.92;49.35;99988.28;7392144;19;1852;-36
2023/10/25 04:42:04;;;;;;;;;;;;;;;21.91;49.52;99983.91;7393276;19;1447;-36
2023/10/25 04:44:33;;;;;;;;;;;;;;;21.98;49.31;99998.34;7388853;19;1808;-39
2023/10/25 04:47:01;;;;;;;;;;;;;;;22.06;49.20;99995.59;7394413;19;1321;-39
2023/10/25 04:49:30;;;;;;;;;;;;;;;21.95;49.63;99996.00;7394039;19;1139;-39
2023/10/25 04:52:01;;;;;;;;;;;;;;;21.92;49.75;99990.97;7393467;19;1464;-40
2023/10/25 04:54:29;;;;;;;;;;;;;;;21.91;49.66;99990.13;7393020;19;1921;-39
2023/10/25 04:56:59;;;;;;;;;;;;;;;21.87;49.74;99967.25;7392766;19;1603;-39
2023/10/25 04:59:27;;;;;;;;;;;;;;;21.88;49.76;99968.94;7391587;19;1861;-39
2023/10/25 05:01:56;;;;;;;;;;;;;;;21.93;47.92;99958.50;7381001;19;1317;-36
2023/10/25 05:04:24;;;;;;;;;;;;;;;21.84;48.59;99952.31;7388513;19;1480;-36
2023/10/25 05:06:53;;;;;;;;;;;;;;;21.81;49.14;99952.66;7389534;19;1558;-36
2023/10/25 05:09:24;;;;;;;;;;;;;;;22.00;48.40;99958.63;7390828;19;1525;-36
2023/10/25 05:11:57;;;;;;;;;;;;;;;21.97;47.97;99940.97;7392939;19;1318;-37
2023/10/25 05:14:26;;;;;;;;;;;;;;;21.89;48.36;99935.63;7390623;19;1848;-36
2023/10/25 05:16:54;;;;;;;;;;;;;;;21.84;49.01;99949.63;7391799;19;1635;-36
2023/10/25 05:19:23;;;;;;;;;;;;;;;21.90;47.68;99953.44;7390048;19;1863;-37
2023/10/25 05:21:53;;;;;;;;;;;;;;;21.73;47.13;99947.28;7390763;19;1538;-36
2023/10/25 05:24:25;;;;;;;;;;;;;;;21.57;47.36;99952.72;7390608;19;1487;-36
2023/10/25 05:26:53;;;;;;;;;;;;;;;21.44;47.34;99962.16;7390701;19;1518;-36
2023/10/25 05:29:22;;;;;;;;;;;;;;;21.32;47.71;99958.13;7394665;19;1573;-36
2023/10/25 05:31:51;;;;;;;;;;;;;;;21.31;47.63;99966.34;7398603;19;1595;-36
2023/10/25 05:34:19;;;;;;;;;;;;;;;21.31;47.00;99960.97;7397259;19;1486;-36
2023/10/25 05:36:48;;;;;;;;;;;;;;;21.28;47.31;99950.56;7396940;19;1855;-37
2023/10/25 05:39:17;;;;;;;;;;;;;;;21.34;47.28;99950.72;7396596;19;1857;-36
2023/10/25 05:41:49;;;;;;;;;;;;;;;21.25;47.29;99943.69;7398616;19;1418;-36
2023/10/25 05:44:18;;;;;;;;;;;;;;;21.20;46.99;99928.03;7394742;19;1703;-36
2023/10/25 05:46:46;;;;;;;;;;;;;;;21.21;46.96;99929.75;7396837;19;1197;-37
2023/10/25 05:49:15;;;;;;;;;;;;;;;21.20;47.45;99928.03;7398765;19;1458;-36
2023/10/25 05:51:44;;;;;;;;;;;;;;;21.23;47.14;99929.56;7398325;19;1562;-36
2023/10/25 05:54:13;;;;;;;;;;;;;;;21.18;47.23;99923.84;7390014;19;2023;-37
2023/10/25 05:56:41;;;;;;;;;;;;;;;21.16;47.23;99909.75;7385895;19;1258;-36
2023/10/25 05:59:13;;;;;;;;;;;;;;;21.15;47.23;99916.13;7389112;19;1878;-36
2023/10/25 06:01:48;;;;;;;;;;;;;;;21.17;47.47;99922.16;7382156;19;1541;-36
2023/10/25 06:04:17;;;;;;;;;;;;;;;21.20;47.36;99922.66;7389935;19;1593;-36
2023/10/25 06:06:46;;;;;;;;;;;;;;;21.34;47.25;99921.13;7392608;19;1497;-36
2023/10/25 06:09:15;;;;;;;;;;;;;;;21.43;46.92;99922.84;7396412;19;1357;-36
2023/10/25 06:11:44;;;;;;;;;;;;;;;21.50;46.77;99922.13;7399807;19;1048;-36
2023/10/25 06:14:15;;;;;;;;;;;;;;;21.60;46.75;99920.09;7396840;19;1860;-36
2023/10/25 06:16:43;;;;;;;;;;;;;;;21.72;46.55;99909.78;7394134;19;1516;-39
2023/10/25 06:19:12;;;;;;;;;;;;;;;21.89;46.06;99908.72;7396805;19;1841;-39
2023/10/25 06:21:40;;;;;;;;;;;;;;;21.96;46.30;99927.69;7397035;19;1402;-37
2023/10/25 06:24:10;;;;;;;;;;;;;;;22.01;46.35;99919.94;7392526;19;1609;-36
2023/10/25 06:26:38;;;;;;;;;;;;;;;21.98;46.59;99917.56;7386533;19;1805;-37
2023/10/25 06:29:06;;;;;;;;;;;;;;;22.05;46.29;99905.94;7392507;19;1658;-36
2023/10/25 06:31:38;;;;;;;;;;;;;;;21.96;47.30;99908.84;7398374;19;1596;-36
2023/10/25 06:34:06;;;;;;;;;;;;;;;21.76;47.92;99913.81;7393907;19;1480;-37
2023/10/25 06:36:35;;;;;;;;;;;;;;;21.90;47.81;99909.53;7392031;19;1460;-36
2023/10/25 06:39:04;;;;;;;;;;;;;;;21.93;48.19;99914.59;7383920;19;1847;-36
2023/10/25 06:41:33;;;;;;;;;;;;;;;22.11;47.74;99925.94;7394918;19;1119;-36
2023/10/25 06:44:02;;;;;;;;;;;;;;;22.28;47.40;99947.41;7395858;19;1435;-36
2023/10/25 06:46:30;;;;;;;;;;;;;;;22.12;47.94;99940.22;7394576;19;1860;-36
2023/10/25 06:49:02;;;;;;;;;;;;;;;21.98;48.23;99936.41;7393391;19;1830;-36
2023/10/25 06:51:30;;;;;;;;;;;;;;;22.00;48.24;99953.22;7393376;19;1487;-36
2023/10/25 06:53:59;;;;;;;;;;;;;;;21.93;48.38;99941.50;7393373;19;1731;-36
2023/10/25 06:56:29;;;;;;;;;;;;;;;21.96;48.49;99927.69;7392350;19;1747;-36
2023/10/25 06:58:57;;;;;;;;;;;;;;;21.93;48.23;99901.13;7391928;19;1866;-36
2023/10/25 07:01:29;;;;;;;;;;;;;;;21.92;48.36;99913.72;7391727;19;1855;-36
2023/10/25 07:03:58;;;;;;;;;;;;;;;21.96;48.32;99912.34;7395283;19;1636;-36
2023/10/25 07:06:30;;;;;;;;;;;;;;;21.90;48.52;99909.53;7398027;19;1719;-36
2023/10/25 07:08:58;;;;;;;;;;;;;;;21.85;48.82;99924.38;7397997;19;1432;-36
2023/10/25 07:11:27;;;;;;;;;;;;;;;21.78;49.00;99939.53;7398269;19;1105;-37
2023/10/25 07:13:55;;;;;;;;;;;;;;;21.77;48.93;99932.47;7394669;19;2360;-37
2023/10/25 07:16:23;;;;;;;;;;;;;;;21.80;48.97;99939.34;7395953;19;1748;-37
2023/10/25 07:18:52;;;;;;;;;;;;;;;21.84;48.81;99928.09;7396076;19;1867;-37
2023/10/25 07:21:17;;;;;;;;;;;;;;;21.80;49.02;99913.28;7396501;19;1759;-37
2023/10/25 07:23:48;;;;;;;;;;;;;;;21.75;49.16;99926.44;7397355;19;1674;-36
2023/10/25 07:26:16;;;;;;;;;;;;;;;21.81;49.20;99939.19;7396540;19;1704;-36
2023/10/25 07:28:45;;;;;;;;;;;;;;;21.89;48.83;99922.16;7395661;19;1643;-36
2023/10/25 07:31:13;;;;;;;;;;;;;;;22.00;48.91;99918.22;7396385;19;1750;-36
2023/10/25 07:33:41;;;;;;;;;;;;;;;21.97;48.80;99910.53;7397486;19;1745;-36
2023/10/25 07:36:10;;;;;;;;;;;;;;;22.00;48.84;99929.00;7398108;19;1243;-36
2023/10/25 07:38:38;;;;;;;;;;;;;;;21.92;49.02;99915.59;7382581;19;1926;-36
2023/10/25 07:41:09;;;;;;;;;;;;;;;21.85;49.03;99886.69;7396482;19;1995;-36
2023/10/25 07:43:38;;;;;;;;;;;;;;;21.87;49.28;99907.22;7395217;19;1476;-36
2023/10/25 07:46:07;;;;;;;;;;;;;;;21.88;49.32;99914.25;7395960;19;1390;-36
2023/10/25 07:48:36;;;;;;;;;;;;;;;21.89;49.11;99932.09;7395861;19;1825;-36
2023/10/25 07:51:05;;;;;;;;;;;;;;;21.93;48.97;99933.44;7396064;19;1372;-36
2023/10/25 07:53:33;;;;;;;;;;;;;;;22.03;48.92;99942.13;7392295;19;1827;-37
2023/10/25 07:56:04;;;;;;;;;;;;;;;21.97;49.27;99922.13;7395020;19;1745;-37
2023/10/25 07:58:35;;;;;;;;;;;;;;;21.99;49.25;99948.88;7395769;19;1557;-37
2023/10/25 08:01:03;;;;;;;;;;;;;;;22.00;49.17;99946.03;7394803;19;1865;-37
2023/10/25 08:03:32;;;;;;;;;;;;;;;22.00;49.29;99929.88;7395077;19;1835;-37
2023/10/25 08:06:00;;;;;;;;;;;;;;;22.03;49.22;99940.28;7395040;19;1902;-36
2023/10/25 08:08:28;;;;;;;;;;;;;;;22.13;48.83;99941.91;7394773;19;1851;-36
2023/10/25 08:11:07;;;;;;;;;;;;;;;22.04;49.11;99930.34;7395670;19;1761;-36
2023/10/25 08:13:38;;;;;;;;;;;;;;;22.07;49.02;99940.75;7393759;19;1489;-36
2023/10/25 08:16:07;;;;;;;;;;;;;;;22.07;49.06;99935.38;7393921;19;1842;-36
2023/10/25 08:18:35;;;;;;;;;;;;;;;21.97;49.25;99946.34;7392309;19;1815;-37
2023/10/25 08:21:04;;;;;;;;;;;;;;;21.87;49.46;99953.81;7392065;19;1870;-36
2023/10/25 08:23:34;;;;;;;;;;;;;;;21.83;49.78;99953.31;7394191;19;1397;-36
2023/10/25 08:26:04;;;;;;;;;;;;;;;21.83;49.55;99945.22;7394350;19;1467;-36
2023/10/25 08:28:32;;;;;;;;;;;;;;;21.87;49.73;99963.75;7392714;19;1533;-37
2023/10/25 08:31:11;;;;;;;;;;;;;;;21.82;49.73;99956.16;7394801;19;1184;-37
2023/10/25 08:33:40;;;;;;;;;;;;;;;21.87;49.71;99956.50;7394499;19;1447;-36
2023/10/25 08:36:09;;;;;;;;;;;;;;;21.83;49.70;99944.41;7392814;19;1979;-36
2023/10/25 08:38:37;;;;;;;;;;;;;;;22.07;49.41;99940.75;7377935;19;1741;-37
2023/10/25 08:41:06;;;;;;;;;;;;;;;21.98;49.51;99947.19;7391690;19;1881;-36
2023/10/25 08:43:34;;;;;;;;;;;;;;;22.04;49.41;99957.25;7392706;19;1761;-36
2023/10/25 08:46:07;;;;;;;;;;;;;;;21.99;49.60;99965.03;7391895;19;1706;-36
2023/10/25 08:48:35;;;;;;;;;;;;;;;22.01;49.19;99963.00;7393288;19;1831;-36
2023/10/25 08:51:05;;;;;;;;;;;;;;;21.92;49.58;99937.94;7391852;19;1663;-36
2023/10/25 08:53:34;;;;;;;;;;;;;;;21.99;49.36;99949.72;7391717;19;1525;-36
2023/10/25 08:56:03;;;;;;;;;;;;;;;22.03;49.30;99928.66;7391705;19;1667;-36
2023/10/25 08:58:31;;;;;;;;;;;;;;;22.11;49.19;99950.16;7391978;19;1553;-36
2023/10/25 09:00:59;;;;;;;;;;;;;;;22.07;49.40;99946.16;7387649;19;1867;-36
2023/10/25 09:03:46;;;;;;;;;;;;;;;22.13;49.04;99948.13;7388749;19;1592;-37
2023/10/25 09:06:24;;;;;;;;;;;;;;;22.14;48.68;99943.56;7389585;19;1487;-38
2023/10/25 09:08:59;;;;;;;;;;;;;;;22.12;48.43;99938.34;7387854;19;1605;-37
2023/10/25 09:11:27;;;;;;;;;;;;;;;22.11;48.45;99946.63;7389924;19;1290;-36
2023/10/25 09:13:59;;;;;;;;;;;;;;;22.16;48.61;99931.63;7388994;19;1564;-36
2023/10/25 09:16:29;;;;;;;;;;;;;;;22.22;47.22;99932.75;7391798;19;1833;-36
2023/10/25 09:18:57;;;;;;;;;;;;;;;;;;7392763;19;1459;-36
2023/10/25 09:21:30;;;;;;;;;;;;;;;22.56;46.76;99918.09;7390573;19;1848;-37
2023/10/25 09:24:02;;;;;;;;;;;;;;;22.73;46.00;99922.34;7391723;19;1794;-36
2023/10/25 09:26:36;;;;;;;;;;;;;;;22.83;45.65;99941.81;7390471;19;1592;-36
2023/10/25 09:29:04;;;;;;;;;;;;;;;22.83;45.49;99936.41;7392375;19;1642;-36
2023/10/25 09:31:34;;;;;;;;;;;;;;;22.90;45.06;99927.59;7392844;19;1330;-36
2023/10/25 09:34:08;;;;;;;;;;;;;;;22.78;44.74;99948.75;7391596;19;1858;-36
2023/10/25 09:36:39;;;;;;;;;;;;;;;22.82;44.88;99940.16;7389719;19;1553;-36
2023/10/25 09:39:07;;;;;;;;;;;;;;;22.76;44.10;99940.00;7374333;19;1583;-37
2023/10/25 09:41:39;;;;;;;;;;;;;;;22.68;44.43;99926.59;7390092;19;1841;-36
2023/10/25 09:44:11;;;;;;;;;;;;;;;22.63;44.58;99930.66;7391889;19;1432;-37
2023/10/25 09:46:40;;;;;;;;;;;;;;;22.54;44.85;99936.28;7389961;19;1817;-37
2023/10/25 09:49:10;;;;;;;;;;;;;;;22.59;44.69;99923.97;7386713;19;1453;-37
2023/10/25 09:51:56;;;;;;;;;;;;;;;22.57;44.61;99917.91;7390691;19;1526;-37
2023/10/25 09:54:26;;;;;;;;;;;;;;;22.82;44.49;99902.41;7391836;19;1767;-37
2023/10/25 09:56:57;;;;;;;;;;;;;;;22.79;44.33;99918.94;7390142;19;1393;-37
2023/10/25 09:59:27;;;;;;;;;;;;;;;22.67;44.32;99915.00;7389829;19;1853;-37
2023/10/25 10:01:56;;;;;;;;;;;;;;;22.76;44.57;99910.34;7390267;19;1800;-37
2023/10/25 10:04:27;;;;;;;;;;;;;;;22.80;44.11;99909.84;7391043;19;1520;-37
2023/10/25 10:07:02;;;;;;;;;;;;;;;22.74;44.90;99901.63;7386903;19;1491;-37
2023/10/25 10:09:34;;;;;;;;;;;;;;;22.95;44.15;99888.28;7389961;19;1416;-37
2023/10/25 10:12:05;;;;;;;;;;;;;;;22.91;44.18;99886.16;7391624;19;1520;-37
2023/10/25 10:14:35;;;;;;;;;;;;;;;23.11;44.34;99903.50;7391224;19;1543;-37
2023/10/25 10:17:07;;;;;;;;;;;;;;;23.02;44.29;99891.97;7396212;19;1793;-37
2023/10/25 10:19:36;;;;;;;;;;;;;;;22.97;44.40;99890.81;7398086;19;1845;-37
2023/10/25 10:22:08;;;;;;;;;;;;;;;23.00;43.91;99914.72;7398377;19;1759;-37
2023/10/25 10:24:40;;;;;;;;;;;;;;;23.08;44.12;99905.72;7399029;19;1707;-36
2023/10/25 10:27:08;;;;;;;;;;;;;;;23.18;43.89;99892.84;7397963;19;1653;-36
2023/10/25 10:29:40;;;;;;;;;;;;;;;22.97;44.06;99907.81;7396662;19;1835;-37
2023/10/25 10:32:09;;;;;;;;;;;;;;;23.04;43.90;99905.28;7397110;19;1570;-37
2023/10/25 10:34:39;;;;;;;;;;;;;;;22.93;44.41;99903.81;7396050;19;1508;-37
2023/10/25 10:37:10;;;;;;;;;;;;;;;22.91;44.16;99903.16;7396599;19;1414;-37
2023/10/25 10:39:39;;;;;;;;;;;;;;;22.92;44.16;99894.06;7381013;19;1867;-40
2023/10/25 10:42:08;;;;;;;;;;;;;;;22.82;44.55;99888.94;7398182;19;1414;-40
2023/10/25 10:44:38;;;;;;;;;;;;;;;22.87;44.61;99899.16;7397112;19;1386;-40
2023/10/25 10:47:09;;;;;;;;;;;;;;;22.87;44.59;99888.38;7396122;19;1452;-40
2023/10/25 10:49:39;;;;;;;;;;;;;;;22.96;44.59;99897.22;7396819;19;1438;-40
2023/10/25 10:52:10;;;;;;;;;;;;;;;22.90;44.08;99900.63;7397107;19;1136;-40
2023/10/25 10:54:38;;;;;;;;;;;;;;;22.81;44.35;99889.09;7395797;19;1780;-40
2023/10/25 10:57:07;;;;;;;;;;;;;;;22.91;44.42;99895.06;7395486;19;1584;-40
2023/10/25 10:59:35;;;;;;;;;;;;;;;23.04;44.03;99891.81;7395710;19;2109;-40
2023/10/25 11:02:04;;;;;;;;;;;;;;;22.97;44.77;99888.94;7393222;19;1845;-40
2023/10/25 11:04:32;;;;;;;;;;;;;;;23.07;45.01;99893.28;7395308;19;1393;-40
2023/10/25 11:07:00;;;;;;;;;;;;;;;22.83;45.72;99892.44;7395303;19;1503;-40
2023/10/25 11:09:31;;;;;;;;;;;;;;;22.80;45.50;99893.66;7394436;19;1443;-40
2023/10/25 11:12:06;;;;;;;;;;;;;;;22.88;45.98;99884.66;7395882;19;1515;-40
2023/10/25 11:14:41;;;;;;;;;;;;;;;22.92;46.17;99888.69;7396296;19;1820;-40
2023/10/25 11:17:10;;;;;;;;;;;;;;;22.87;43.94;99882.16;7395777;19;1779;-40
2023/10/25 11:19:38;;;;;;;;;;;;;;;22.86;45.25;99899.34;7395870;19;1908;-40
2023/10/25 11:22:06;;;;;;;;;;;;;;;22.90;45.08;99884.47;7393217;19;1849;-40
2023/10/25 11:24:39;;;;;;;;;;;;;;;22.96;45.25;99892.69;7396220;19;1613;-40
2023/10/25 11:27:07;;;;;;;;;;;;;;;23.12;45.25;99907.03;7393805;19;1539;-40
2023/10/25 11:29:37;;;;;;;;;;;;;;;23.03;45.31;99909.81;7393237;19;2496;-40
2023/10/25 11:32:11;;;;;;;;;;;;;;;23.12;45.28;99898.94;7394959;19;1624;-40
2023/10/25 11:34:41;;;;;;;;;;;;;;;23.32;45.13;99881.22;7394952;19;1419;-40
2023/10/25 11:37:11;;;;;;;;;;;;;;;23.41;44.96;99885.47;7394780;19;1480;-40
2023/10/25 11:39:54;;;;;;;;;;;;;;;23.30;45.97;99872.47;7378128;19;1582;-40
2023/10/25 11:42:25;;;;;;;;;;;;;;;23.31;45.81;99876.84;7392833;19;1853;-40
2023/10/25 11:44:54;;;;;;;;;;;;;;;23.45;45.45;99877.03;7395370;19;1438;-41
2023/10/25 11:47:24;;;;;;;;;;;;;;;23.37;46.02;99878.78;7392945;19;1461;-40
2023/10/25 11:49:55;;;;;;;;;;;;;;;23.50;45.96;99877.31;7395320;19;1571;-40
2023/10/25 11:52:25;;;;;;;;;;;;;;;23.68;45.30;99869.66;7396480;19;1448;-44
2023/10/25 11:54:55;;;;;;;;;;;;;;;23.60;45.50;99880.56;7398017;19;1039;-40
2023/10/25 11:57:27;;;;;;;;;;;;;;;23.47;45.79;99864.19;7397892;19;1064;-40
2023/10/25 11:59:55;;;;;;;;;;;;;;;23.58;45.85;99859.16;7396107;19;1828;-40
2023/10/25 12:02:25;;;;;;;;;;;;;;;23.42;45.74;99865.59;7394498;19;1871;-40
2023/10/25 12:04:53;;;;;;;;;;;;;;;23.27;46.09;99878.22;7395762;19;1717;-40
2023/10/25 12:07:24;;;;;;;;;;;;;;;23.22;46.35;99867.19;7395497;19;1651;-40
2023/10/25 12:09:52;;;;;;;;;;;;;;;23.22;46.45;99864.47;7394345;19;1477;-40
2023/10/25 12:12:21;;;;;;;;;;;;;;;23.15;46.39;99853.56;7391690;19;1391;-40
2023/10/25 12:14:53;;;;;;;;;;;;;;;23.25;46.46;99866.78;7393035;19;1541;-41
2023/10/25 12:17:21;;;;;;;;;;;;;;;23.11;46.87;99865.75;7392991;19;1569;-40
2023/10/25 12:19:51;;;;;;;;;;;;;;;23.22;46.42;99868.00;7392555;19;1939;-40
2023/10/25 12:22:19;;;;;;;;;;;;;;;23.21;46.86;99862.78;7389926;19;1906;-40
2023/10/25 12:24:49;;;;;;;;;;;;;;;23.19;46.64;99876.44;7391758;19;1897;-39
2023/10/25 12:27:17;;;;;;;;;;;;;;;23.05;47.33;99879.16;7392229;19;1483;-40
2023/10/25 12:29:47;;;;;;;;;;;;;;;23.40;46.35;99878.44;7390797;19;1384;-40
2023/10/25 12:32:21;;;;;;;;;;;;;;;23.31;46.53;99847.16;7391056;19;1382;-40
2023/10/25 12:34:50;;;;;;;;;;;;;;;23.23;46.92;99866.13;7392992;19;1397;-40
2023/10/25 12:37:18;;;;;;;;;;;;;;;23.35;46.91;99853.84;7392175;19;1222;-40
2023/10/25 12:39:46;;;;;;;;;;;;;;;23.28;46.82;99852.09;7376109;19;1750;-40
2023/10/25 12:42:15;;;;;;;;;;;;;;;23.25;47.23;99853.31;7390880;19;1860;-40
2023/10/25 12:44:43;;;;;;;;;;;;;;;23.27;47.17;99855.81;7392403;19;1456;-40
2023/10/25 12:47:11;;;;;;;;;;;;;;;23.10;47.49;99860.53;7393287;19;1560;-37
2023/10/25 12:49:42;;;;;;;;;;;;;;;23.08;47.66;99847.25;7389490;19;1595;-37
2023/10/25 12:52:10;;;;;;;;;;;;;;;23.13;47.71;99850.22;7392824;19;1400;-37
2023/10/25 12:54:39;;;;;;;;;;;;;;;23.10;47.54;99849.75;7393851;19;1833;-37
2023/10/25 12:57:07;;;;;;;;;;;;;;;22.99;47.26;99846.47;7392313;19;1579;-37
2023/10/25 12:59:35;;;;;;;;;;;;;;;22.95;47.55;99877.50;7392064;19;1542;-37
2023/10/25 13:02:04;;;;;;;;;;;;;;;22.92;47.69;99869.81;7393063;19;2546;-37
2023/10/25 13:04:32;;;;;;;;;;;;;;;22.97;47.52;99871.94;7394016;19;1015;-37
2023/10/25 13:07:06;;;;;;;;;;;;;;;23.04;47.65;99878.31;7393933;19;1738;-37